sensor_id;sensor_type;location;lat;lon;timestamp;P1;durP1;ratioP1;P2;durP2;ratioP2
6414;SDS011;3240;48.790;9.210;2023-03-20T00:01:11;5.70;;;3.33;;
6414;SDS011;3240;48.790;9.210;2023-03-20T00:03:39;4.20;;;3.10;;
6414;SDS011;3240;48.790;9.210;2023-03-20T00:06:18;3.40;;;3.03;;
6414;SDS011;3240;48.790;9.210;2023-03-20T00:08:47;3.97;;;2.70;;
6414;SDS011;3240;48.790;9.210;2023-03-20T00:11:32;3.77;;;3.30;;
6414;SDS011;3240;48.790;9.210;2023-03-20T00:14:00;2.70;;;2.50;;
6414;SDS011;3240;48.790;9.210;2023-03-20T00:16:30;4.50;;;3.60;;
6414;SDS011;3240;48.790;9.210;2023-03-20T00:18:57;3.63;;;2.83;;
6414;SDS011;3240;48.790;9.210;2023-03-20T00:21:25;3.67;;;3.37;;
6414;SDS011;3240;48.790;9.210;2023-03-20T00:23:54;6.40;;;3.43;;
6414;SDS011;3240;48.790;9.210;2023-03-20T00:26:24;4.37;;;3.20;;
6414;SDS011;3240;48.790;9.210;2023-03-20T00:28:50;3.93;;;3.13;;
6414;SDS011;3240;48.790;9.210;2023-03-20T00:31:22;2.67;;;2.47;;
6414;SDS011;3240;48.790;9.210;2023-03-20T00:33:49;3.47;;;2.73;;
6414;SDS011;3240;48.790;9.210;2023-03-20T00:36:17;4.43;;;3.13;;
6414;SDS011;3240;48.790;9.210;2023-03-20T00:38:45;5.63;;;3.33;;
6414;SDS011;3240;48.790;9.210;2023-03-20T00:43:48;5.83;;;3.33;;
6414;SDS011;3240;48.790;9.210;2023-03-20T00:46:16;7.23;;;4.00;;
6414;SDS011;3240;48.790;9.210;2023-03-20T00:48:45;4.00;;;3.33;;
6414;SDS011;3240;48.790;9.210;2023-03-20T00:51:13;4.57;;;3.50;;
6414;SDS011;3240;48.790;9.210;2023-03-20T00:53:41;5.23;;;2.90;;
6414;SDS011;3240;48.790;9.210;2023-03-20T00:56:20;3.60;;;3.00;;
6414;SDS011;3240;48.790;9.210;2023-03-20T00:58:41;6.13;;;3.60;;
6414;SDS011;3240;48.790;9.210;2023-03-20T01:01:09;4.80;;;3.40;;
6414;SDS011;3240;48.790;9.210;2023-03-20T01:03:37;4.23;;;2.40;;
6414;SDS011;3240;48.790;9.210;2023-03-20T01:06:07;4.83;;;2.20;;
6414;SDS011;3240;48.790;9.210;2023-03-20T01:08:34;4.70;;;2.47;;
6414;SDS011;3240;48.790;9.210;2023-03-20T01:11:02;3.50;;;2.30;;
6414;SDS011;3240;48.790;9.210;2023-03-20T01:13:31;3.00;;;2.70;;
6414;SDS011;3240;48.790;9.210;2023-03-20T01:15:59;2.30;;;2.10;;
6414;SDS011;3240;48.790;9.210;2023-03-20T01:18:27;5.13;;;2.90;;
6414;SDS011;3240;48.790;9.210;2023-03-20T01:20:56;7.60;;;2.40;;
6414;SDS011;3240;48.790;9.210;2023-03-20T01:23:24;4.47;;;2.90;;
6414;SDS011;3240;48.790;9.210;2023-03-20T01:25:52;3.97;;;2.70;;
6414;SDS011;3240;48.790;9.210;2023-03-20T01:28:21;4.07;;;3.23;;
6414;SDS011;3240;48.790;9.210;2023-03-20T01:30:49;3.23;;;2.93;;
6414;SDS011;3240;48.790;9.210;2023-03-20T01:33:18;7.13;;;3.40;;
6414;SDS011;3240;48.790;9.210;2023-03-20T01:35:46;4.40;;;3.10;;
6414;SDS011;3240;48.790;9.210;2023-03-20T01:38:17;6.80;;;3.50;;
6414;SDS011;3240;48.790;9.210;2023-03-20T01:40:53;5.47;;;3.40;;
6414;SDS011;3240;48.790;9.210;2023-03-20T01:43:22;4.17;;;3.13;;
6414;SDS011;3240;48.790;9.210;2023-03-20T01:45:55;3.40;;;2.80;;
6414;SDS011;3240;48.790;9.210;2023-03-20T01:48:22;6.20;;;3.83;;
6414;SDS011;3240;48.790;9.210;2023-03-20T01:50:50;4.80;;;3.90;;
6414;SDS011;3240;48.790;9.210;2023-03-20T01:53:20;7.37;;;3.30;;
6414;SDS011;3240;48.790;9.210;2023-03-20T01:55:48;4.13;;;3.00;;
6414;SDS011;3240;48.790;9.210;2023-03-20T01:58:18;3.70;;;2.60;;
6414;SDS011;3240;48.790;9.210;2023-03-20T02:00:45;2.63;;;2.33;;
6414;SDS011;3240;48.790;9.210;2023-03-20T02:03:13;3.93;;;2.90;;
6414;SDS011;3240;48.790;9.210;2023-03-20T02:05:41;2.83;;;2.53;;
6414;SDS011;3240;48.790;9.210;2023-03-20T02:08:13;6.37;;;3.03;;
6414;SDS011;3240;48.790;9.210;2023-03-20T02:10:38;9.13;;;2.53;;
6414;SDS011;3240;48.790;9.210;2023-03-20T02:13:07;2.33;;;2.03;;
6414;SDS011;3240;48.790;9.210;2023-03-20T02:15:35;2.30;;;1.67;;
6414;SDS011;3240;48.790;9.210;2023-03-20T02:18:03;2.10;;;1.80;;
6414;SDS011;3240;48.790;9.210;2023-03-20T02:21:14;2.87;;;2.20;;
6414;SDS011;3240;48.790;9.210;2023-03-20T02:23:31;2.10;;;1.90;;
6414;SDS011;3240;48.790;9.210;2023-03-20T02:26:02;2.13;;;1.93;;
6414;SDS011;3240;48.790;9.210;2023-03-20T02:28:39;2.55;;;1.80;;
6414;SDS011;3240;48.790;9.210;2023-03-20T02:31:13;2.17;;;1.97;;
6414;SDS011;3240;48.790;9.210;2023-03-20T02:39:16;1.53;;;1.43;;
6414;SDS011;3240;48.790;9.210;2023-03-20T02:41:51;1.90;;;1.53;;
6414;SDS011;3240;48.790;9.210;2023-03-20T02:47:09;2.57;;;1.20;;
6414;SDS011;3240;48.790;9.210;2023-03-20T02:52:14;1.70;;;1.47;;
6414;SDS011;3240;48.790;9.210;2023-03-20T02:54:40;1.17;;;1.07;;
6414;SDS011;3240;48.790;9.210;2023-03-20T02:57:13;1.63;;;1.03;;
6414;SDS011;3240;48.790;9.210;2023-03-20T02:59:40;1.07;;;0.83;;
6414;SDS011;3240;48.790;9.210;2023-03-20T03:02:10;1.73;;;0.90;;
6414;SDS011;3240;48.790;9.210;2023-03-20T03:04:38;1.10;;;1.00;;
6414;SDS011;3240;48.790;9.210;2023-03-20T03:07:05;2.20;;;0.93;;
6414;SDS011;3240;48.790;9.210;2023-03-20T03:09:35;1.47;;;0.93;;
6414;SDS011;3240;48.790;9.210;2023-03-20T03:12:04;1.50;;;1.03;;
6414;SDS011;3240;48.790;9.210;2023-03-20T03:14:34;0.70;;;0.70;;
6414;SDS011;3240;48.790;9.210;2023-03-20T03:16:59;2.83;;;1.40;;
6414;SDS011;3240;48.790;9.210;2023-03-20T03:19:27;1.53;;;0.80;;
6414;SDS011;3240;48.790;9.210;2023-03-20T03:21:56;1.20;;;0.87;;
6414;SDS011;3240;48.790;9.210;2023-03-20T03:24:28;4.30;;;0.90;;
6414;SDS011;3240;48.790;9.210;2023-03-20T03:26:56;2.07;;;0.90;;
6414;SDS011;3240;48.790;9.210;2023-03-20T03:29:24;1.00;;;0.80;;
6414;SDS011;3240;48.790;9.210;2023-03-20T03:31:52;0.93;;;0.70;;
6414;SDS011;3240;48.790;9.210;2023-03-20T03:34:20;1.00;;;0.70;;
6414;SDS011;3240;48.790;9.210;2023-03-20T03:39:35;1.20;;;0.83;;
6414;SDS011;3240;48.790;9.210;2023-03-20T03:42:04;0.83;;;0.80;;
6414;SDS011;3240;48.790;9.210;2023-03-20T03:44:35;0.97;;;0.70;;
6414;SDS011;3240;48.790;9.210;2023-03-20T03:47:04;0.80;;;0.77;;
6414;SDS011;3240;48.790;9.210;2023-03-20T03:49:32;2.63;;;0.77;;
6414;SDS011;3240;48.790;9.210;2023-03-20T03:52:02;1.67;;;0.90;;
6414;SDS011;3240;48.790;9.210;2023-03-20T03:54:32;1.10;;;1.00;;
6414;SDS011;3240;48.790;9.210;2023-03-20T03:56:58;1.00;;;0.87;;
6414;SDS011;3240;48.790;9.210;2023-03-20T03:59:31;2.40;;;1.00;;
6414;SDS011;3240;48.790;9.210;2023-03-20T04:01:57;1.60;;;0.80;;
6414;SDS011;3240;48.790;9.210;2023-03-20T04:04:26;1.30;;;0.77;;
6414;SDS011;3240;48.790;9.210;2023-03-20T04:06:54;1.10;;;0.67;;
6414;SDS011;3240;48.790;9.210;2023-03-20T04:09:22;1.70;;;0.80;;
6414;SDS011;3240;48.790;9.210;2023-03-20T04:11:51;1.37;;;0.80;;
6414;SDS011;3240;48.790;9.210;2023-03-20T04:14:19;1.50;;;0.90;;
6414;SDS011;3240;48.790;9.210;2023-03-20T04:16:47;0.73;;;0.63;;
6414;SDS011;3240;48.790;9.210;2023-03-20T04:19:16;1.77;;;0.90;;
6414;SDS011;3240;48.790;9.210;2023-03-20T04:21:44;0.80;;;0.70;;
6414;SDS011;3240;48.790;9.210;2023-03-20T04:24:12;0.83;;;0.80;;
6414;SDS011;3240;48.790;9.210;2023-03-20T04:26:41;1.10;;;0.70;;
6414;SDS011;3240;48.790;9.210;2023-03-20T04:29:09;0.80;;;0.60;;
6414;SDS011;3240;48.790;9.210;2023-03-20T04:31:37;1.10;;;0.80;;
6414;SDS011;3240;48.790;9.210;2023-03-20T04:34:06;0.70;;;0.63;;
6414;SDS011;3240;48.790;9.210;2023-03-20T04:36:34;1.20;;;1.03;;
6414;SDS011;3240;48.790;9.210;2023-03-20T04:39:02;0.73;;;0.70;;
6414;SDS011;3240;48.790;9.210;2023-03-20T04:41:31;0.70;;;0.60;;
6414;SDS011;3240;48.790;9.210;2023-03-20T04:43:59;0.97;;;0.80;;
6414;SDS011;3240;48.790;9.210;2023-03-20T04:46:27;2.50;;;0.70;;
6414;SDS011;3240;48.790;9.210;2023-03-20T04:48:56;1.00;;;0.73;;
6414;SDS011;3240;48.790;9.210;2023-03-20T04:51:24;0.80;;;0.53;;
6414;SDS011;3240;48.790;9.210;2023-03-20T04:53:52;1.73;;;0.60;;
6414;SDS011;3240;48.790;9.210;2023-03-20T04:56:21;1.00;;;0.87;;
6414;SDS011;3240;48.790;9.210;2023-03-20T04:58:49;2.30;;;0.83;;
6414;SDS011;3240;48.790;9.210;2023-03-20T05:01:17;0.67;;;0.57;;
6414;SDS011;3240;48.790;9.210;2023-03-20T05:03:46;1.03;;;0.70;;
6414;SDS011;3240;48.790;9.210;2023-03-20T05:06:14;1.37;;;0.83;;
6414;SDS011;3240;48.790;9.210;2023-03-20T05:08:42;1.00;;;0.90;;
6414;SDS011;3240;48.790;9.210;2023-03-20T05:11:11;1.93;;;0.90;;
6414;SDS011;3240;48.790;9.210;2023-03-20T05:13:39;0.60;;;0.60;;
6414;SDS011;3240;48.790;9.210;2023-03-20T05:16:07;1.90;;;0.70;;
6414;SDS011;3240;48.790;9.210;2023-03-20T05:18:36;3.40;;;0.73;;
6414;SDS011;3240;48.790;9.210;2023-03-20T05:21:04;1.50;;;0.87;;
6414;SDS011;3240;48.790;9.210;2023-03-20T05:23:33;1.13;;;0.70;;
6414;SDS011;3240;48.790;9.210;2023-03-20T05:26:01;1.03;;;0.93;;
6414;SDS011;3240;48.790;9.210;2023-03-20T05:28:29;1.27;;;1.03;;
6414;SDS011;3240;48.790;9.210;2023-03-20T05:30:57;1.30;;;0.80;;
6414;SDS011;3240;48.790;9.210;2023-03-20T05:33:26;2.30;;;1.00;;
6414;SDS011;3240;48.790;9.210;2023-03-20T05:35:54;2.13;;;0.80;;
6414;SDS011;3240;48.790;9.210;2023-03-20T05:38:22;1.30;;;0.90;;
6414;SDS011;3240;48.790;9.210;2023-03-20T05:40:55;1.30;;;0.90;;
6414;SDS011;3240;48.790;9.210;2023-03-20T05:43:23;1.80;;;0.97;;
6414;SDS011;3240;48.790;9.210;2023-03-20T05:45:52;1.27;;;0.90;;
6414;SDS011;3240;48.790;9.210;2023-03-20T05:48:20;1.53;;;0.83;;
6414;SDS011;3240;48.790;9.210;2023-03-20T05:50:48;0.93;;;0.83;;
6414;SDS011;3240;48.790;9.210;2023-03-20T05:53:16;2.03;;;0.73;;
6414;SDS011;3240;48.790;9.210;2023-03-20T05:55:45;1.20;;;1.07;;
6414;SDS011;3240;48.790;9.210;2023-03-20T05:58:13;3.20;;;1.20;;
6414;SDS011;3240;48.790;9.210;2023-03-20T06:00:41;4.37;;;1.00;;
6414;SDS011;3240;48.790;9.210;2023-03-20T06:03:10;1.63;;;0.93;;
6414;SDS011;3240;48.790;9.210;2023-03-20T06:05:38;2.13;;;1.00;;
6414;SDS011;3240;48.790;9.210;2023-03-20T06:08:06;2.37;;;1.20;;
6414;SDS011;3240;48.790;9.210;2023-03-20T06:10:35;6.47;;;3.73;;
6414;SDS011;3240;48.790;9.210;2023-03-20T06:13:03;1.53;;;1.07;;
6414;SDS011;3240;48.790;9.210;2023-03-20T06:15:32;1.63;;;1.00;;
6414;SDS011;3240;48.790;9.210;2023-03-20T06:18:00;3.30;;;1.40;;
6414;SDS011;3240;48.790;9.210;2023-03-20T06:20:28;4.13;;;1.90;;
6414;SDS011;3240;48.790;9.210;2023-03-20T06:22:56;4.97;;;2.40;;
6414;SDS011;3240;48.790;9.210;2023-03-20T06:25:25;4.93;;;2.03;;
6414;SDS011;3240;48.790;9.210;2023-03-20T06:27:53;4.97;;;2.10;;
6414;SDS011;3240;48.790;9.210;2023-03-20T06:30:21;2.90;;;1.40;;
6414;SDS011;3240;48.790;9.210;2023-03-20T06:32:50;3.13;;;1.20;;
6414;SDS011;3240;48.790;9.210;2023-03-20T06:35:18;3.00;;;1.50;;
6414;SDS011;3240;48.790;9.210;2023-03-20T06:37:47;1.40;;;1.17;;
6414;SDS011;3240;48.790;9.210;2023-03-20T06:40:15;2.00;;;1.27;;
6414;SDS011;3240;48.790;9.210;2023-03-20T06:42:43;1.27;;;1.17;;
6414;SDS011;3240;48.790;9.210;2023-03-20T06:45:11;3.70;;;1.10;;
6414;SDS011;3240;48.790;9.210;2023-03-20T06:47:40;1.53;;;1.20;;
6414;SDS011;3240;48.790;9.210;2023-03-20T06:50:08;1.50;;;1.20;;
6414;SDS011;3240;48.790;9.210;2023-03-20T06:52:37;5.10;;;1.20;;
6414;SDS011;3240;48.790;9.210;2023-03-20T06:55:06;4.37;;;1.57;;
6414;SDS011;3240;48.790;9.210;2023-03-20T06:57:34;5.00;;;1.40;;
6414;SDS011;3240;48.790;9.210;2023-03-20T07:00:03;2.20;;;1.50;;
6414;SDS011;3240;48.790;9.210;2023-03-20T07:02:30;2.73;;;1.20;;
6414;SDS011;3240;48.790;9.210;2023-03-20T07:04:59;3.07;;;1.20;;
6414;SDS011;3240;48.790;9.210;2023-03-20T07:07:27;1.50;;;1.07;;
6414;SDS011;3240;48.790;9.210;2023-03-20T07:09:55;2.40;;;1.30;;
6414;SDS011;3240;48.790;9.210;2023-03-20T07:12:24;1.37;;;1.13;;
6414;SDS011;3240;48.790;9.210;2023-03-20T07:14:52;2.47;;;1.80;;
6414;SDS011;3240;48.790;9.210;2023-03-20T07:17:20;1.10;;;0.80;;
6414;SDS011;3240;48.790;9.210;2023-03-20T07:19:49;1.33;;;1.00;;
6414;SDS011;3240;48.790;9.210;2023-03-20T07:22:20;1.30;;;1.10;;
6414;SDS011;3240;48.790;9.210;2023-03-20T07:24:45;1.67;;;1.00;;
6414;SDS011;3240;48.790;9.210;2023-03-20T07:27:14;2.10;;;1.17;;
6414;SDS011;3240;48.790;9.210;2023-03-20T07:29:42;3.90;;;1.03;;
6414;SDS011;3240;48.790;9.210;2023-03-20T07:32:10;1.93;;;1.00;;
6414;SDS011;3240;48.790;9.210;2023-03-20T07:34:39;1.75;;;1.10;;
6414;SDS011;3240;48.790;9.210;2023-03-20T07:37:07;2.27;;;1.10;;
6414;SDS011;3240;48.790;9.210;2023-03-20T07:39:35;1.97;;;1.33;;
6414;SDS011;3240;48.790;9.210;2023-03-20T07:42:04;1.63;;;1.33;;
6414;SDS011;3240;48.790;9.210;2023-03-20T07:44:32;2.03;;;1.23;;
6414;SDS011;3240;48.790;9.210;2023-03-20T07:47:00;2.37;;;1.37;;
6414;SDS011;3240;48.790;9.210;2023-03-20T07:49:29;2.07;;;1.50;;
6414;SDS011;3240;48.790;9.210;2023-03-20T07:51:57;1.53;;;1.20;;
6414;SDS011;3240;48.790;9.210;2023-03-20T07:54:25;1.90;;;1.73;;
6414;SDS011;3240;48.790;9.210;2023-03-20T07:56:54;2.30;;;1.50;;
6414;SDS011;3240;48.790;9.210;2023-03-20T07:59:22;1.83;;;1.23;;
6414;SDS011;3240;48.790;9.210;2023-03-20T08:01:50;2.70;;;1.07;;
6414;SDS011;3240;48.790;9.210;2023-03-20T08:04:19;2.00;;;1.27;;
6414;SDS011;3240;48.790;9.210;2023-03-20T08:06:47;4.70;;;1.80;;
6414;SDS011;3240;48.790;9.210;2023-03-20T08:09:16;1.80;;;1.30;;
6414;SDS011;3240;48.790;9.210;2023-03-20T08:11:44;1.87;;;1.37;;
6414;SDS011;3240;48.790;9.210;2023-03-20T08:14:12;5.60;;;1.40;;
6414;SDS011;3240;48.790;9.210;2023-03-20T08:16:40;2.00;;;1.37;;
6414;SDS011;3240;48.790;9.210;2023-03-20T08:19:09;1.40;;;1.30;;
6414;SDS011;3240;48.790;9.210;2023-03-20T08:21:37;2.83;;;1.30;;
6414;SDS011;3240;48.790;9.210;2023-03-20T08:24:05;1.73;;;1.30;;
6414;SDS011;3240;48.790;9.210;2023-03-20T08:26:34;5.10;;;1.60;;
6414;SDS011;3240;48.790;9.210;2023-03-20T08:29:02;1.70;;;1.30;;
6414;SDS011;3240;48.790;9.210;2023-03-20T08:31:30;2.20;;;1.07;;
6414;SDS011;3240;48.790;9.210;2023-03-20T08:33:59;2.07;;;1.27;;
6414;SDS011;3240;48.790;9.210;2023-03-20T08:36:27;1.70;;;1.00;;
6414;SDS011;3240;48.790;9.210;2023-03-20T08:38:55;2.50;;;1.63;;
6414;SDS011;3240;48.790;9.210;2023-03-20T08:41:24;2.40;;;1.13;;
6414;SDS011;3240;48.790;9.210;2023-03-20T08:43:52;1.10;;;1.00;;
6414;SDS011;3240;48.790;9.210;2023-03-20T08:46:20;1.60;;;1.10;;
6414;SDS011;3240;48.790;9.210;2023-03-20T08:48:49;1.23;;;0.93;;
6414;SDS011;3240;48.790;9.210;2023-03-20T08:51:19;2.10;;;1.20;;
6414;SDS011;3240;48.790;9.210;2023-03-20T08:53:54;1.43;;;1.10;;
6414;SDS011;3240;48.790;9.210;2023-03-20T08:56:30;1.63;;;1.00;;
6414;SDS011;3240;48.790;9.210;2023-03-20T08:59:02;1.40;;;1.07;;
6414;SDS011;3240;48.790;9.210;2023-03-20T09:01:36;1.97;;;0.97;;
6414;SDS011;3240;48.790;9.210;2023-03-20T09:04:06;2.97;;;1.30;;
6414;SDS011;3240;48.790;9.210;2023-03-20T09:06:38;1.10;;;1.00;;
6414;SDS011;3240;48.790;9.210;2023-03-20T09:09:06;1.13;;;1.00;;
6414;SDS011;3240;48.790;9.210;2023-03-20T09:11:38;1.58;;;1.20;;
6414;SDS011;3240;48.790;9.210;2023-03-20T09:14:08;1.63;;;1.10;;
6414;SDS011;3240;48.790;9.210;2023-03-20T09:16:43;1.67;;;1.10;;
6414;SDS011;3240;48.790;9.210;2023-03-20T09:19:16;1.70;;;1.17;;
6414;SDS011;3240;48.790;9.210;2023-03-20T09:21:50;2.60;;;1.20;;
6414;SDS011;3240;48.790;9.210;2023-03-20T09:24:21;5.83;;;1.30;;
6414;SDS011;3240;48.790;9.210;2023-03-20T09:26:49;4.20;;;1.10;;
6414;SDS011;3240;48.790;9.210;2023-03-20T09:29:19;4.03;;;1.30;;
6414;SDS011;3240;48.790;9.210;2023-03-20T09:31:47;1.30;;;1.03;;
6414;SDS011;3240;48.790;9.210;2023-03-20T09:34:17;1.90;;;1.20;;
6414;SDS011;3240;48.790;9.210;2023-03-20T09:36:52;2.03;;;1.40;;
6414;SDS011;3240;48.790;9.210;2023-03-20T09:39:24;1.17;;;1.07;;
6414;SDS011;3240;48.790;9.210;2023-03-20T09:41:58;5.13;;;1.30;;
6414;SDS011;3240;48.790;9.210;2023-03-20T09:44:34;1.10;;;0.90;;
6414;SDS011;3240;48.790;9.210;2023-03-20T09:47:02;1.33;;;1.23;;
6414;SDS011;3240;48.790;9.210;2023-03-20T09:49:38;1.57;;;0.87;;
6414;SDS011;3240;48.790;9.210;2023-03-20T09:52:25;1.60;;;1.47;;
6414;SDS011;3240;48.790;9.210;2023-03-20T09:54:59;1.37;;;0.60;;
6414;SDS011;3240;48.790;9.210;2023-03-20T09:57:32;1.30;;;0.90;;
6414;SDS011;3240;48.790;9.210;2023-03-20T09:59:58;1.20;;;1.07;;
6414;SDS011;3240;48.790;9.210;2023-03-20T10:02:35;2.30;;;1.47;;
6414;SDS011;3240;48.790;9.210;2023-03-20T10:05:01;1.33;;;1.00;;
6414;SDS011;3240;48.790;9.210;2023-03-20T10:07:35;2.40;;;0.90;;
6414;SDS011;3240;48.790;9.210;2023-03-20T10:10:07;1.10;;;1.00;;
6414;SDS011;3240;48.790;9.210;2023-03-20T10:12:47;3.03;;;1.20;;
6414;SDS011;3240;48.790;9.210;2023-03-20T10:15:19;1.50;;;1.23;;
6414;SDS011;3240;48.790;9.210;2023-03-20T10:20:32;1.20;;;1.10;;
6414;SDS011;3240;48.790;9.210;2023-03-20T10:23:06;1.33;;;1.03;;
6414;SDS011;3240;48.790;9.210;2023-03-20T10:25:40;1.70;;;1.30;;
6414;SDS011;3240;48.790;9.210;2023-03-20T10:28:11;1.23;;;1.07;;
6414;SDS011;3240;48.790;9.210;2023-03-20T10:30:48;1.37;;;1.17;;
6414;SDS011;3240;48.790;9.210;2023-03-20T10:38:32;1.53;;;1.40;;
6414;SDS011;3240;48.790;9.210;2023-03-20T10:40:59;1.30;;;0.90;;
6414;SDS011;3240;48.790;9.210;2023-03-20T10:43:28;0.90;;;0.80;;
6414;SDS011;3240;48.790;9.210;2023-03-20T10:46:01;1.10;;;0.90;;
6414;SDS011;3240;48.790;9.210;2023-03-20T10:48:31;1.93;;;1.70;;
6414;SDS011;3240;48.790;9.210;2023-03-20T10:51:01;2.10;;;1.83;;
6414;SDS011;3240;48.790;9.210;2023-03-20T10:53:33;2.97;;;2.17;;
6414;SDS011;3240;48.790;9.210;2023-03-20T10:56:04;3.57;;;1.90;;
6414;SDS011;3240;48.790;9.210;2023-03-20T10:58:35;2.80;;;2.10;;
6414;SDS011;3240;48.790;9.210;2023-03-20T11:01:06;2.50;;;1.83;;
6414;SDS011;3240;48.790;9.210;2023-03-20T11:03:36;3.03;;;2.63;;
6414;SDS011;3240;48.790;9.210;2023-03-20T11:06:16;2.40;;;1.97;;
6414;SDS011;3240;48.790;9.210;2023-03-20T11:08:51;3.33;;;1.70;;
6414;SDS011;3240;48.790;9.210;2023-03-20T11:11:29;4.40;;;1.83;;
6414;SDS011;3240;48.790;9.210;2023-03-20T11:14:08;4.17;;;2.33;;
6414;SDS011;3240;48.790;9.210;2023-03-20T11:16:36;3.13;;;1.50;;
6414;SDS011;3240;48.790;9.210;2023-03-20T11:19:07;2.57;;;2.13;;
6414;SDS011;3240;48.790;9.210;2023-03-20T11:26:52;5.83;;;3.70;;
6414;SDS011;3240;48.790;9.210;2023-03-20T11:29:28;4.93;;;3.37;;
6414;SDS011;3240;48.790;9.210;2023-03-20T11:32:02;6.17;;;3.63;;
6414;SDS011;3240;48.790;9.210;2023-03-20T11:34:27;5.20;;;3.50;;
6414;SDS011;3240;48.790;9.210;2023-03-20T11:36:58;8.47;;;3.90;;
6414;SDS011;3240;48.790;9.210;2023-03-20T11:39:38;5.10;;;3.47;;
6414;SDS011;3240;48.790;9.210;2023-03-20T11:42:20;6.73;;;4.10;;
6414;SDS011;3240;48.790;9.210;2023-03-20T11:44:38;6.07;;;3.63;;
6414;SDS011;3240;48.790;9.210;2023-03-20T11:47:12;4.17;;;3.33;;
6414;SDS011;3240;48.790;9.210;2023-03-20T11:49:44;5.40;;;3.57;;
6414;SDS011;3240;48.790;9.210;2023-03-20T11:52:26;7.57;;;4.47;;
6414;SDS011;3240;48.790;9.210;2023-03-20T11:54:55;5.40;;;3.90;;
6414;SDS011;3240;48.790;9.210;2023-03-20T11:57:30;10.53;;;4.00;;
6414;SDS011;3240;48.790;9.210;2023-03-20T12:00:01;12.00;;;5.73;;
6414;SDS011;3240;48.790;9.210;2023-03-20T12:02:34;5.90;;;4.73;;
6414;SDS011;3240;48.790;9.210;2023-03-20T12:05:18;7.03;;;4.50;;
6414;SDS011;3240;48.790;9.210;2023-03-20T12:07:47;6.30;;;4.23;;
6414;SDS011;3240;48.790;9.210;2023-03-20T12:10:19;4.87;;;3.40;;
6414;SDS011;3240;48.790;9.210;2023-03-20T12:12:53;6.30;;;4.10;;
6414;SDS011;3240;48.790;9.210;2023-03-20T12:15:25;8.35;;;4.93;;
6414;SDS011;3240;48.790;9.210;2023-03-20T12:17:58;7.77;;;4.50;;
6414;SDS011;3240;48.790;9.210;2023-03-20T12:20:31;8.27;;;4.10;;
6414;SDS011;3240;48.790;9.210;2023-03-20T12:23:08;6.13;;;3.70;;
6414;SDS011;3240;48.790;9.210;2023-03-20T12:26:03;5.60;;;4.07;;
6414;SDS011;3240;48.790;9.210;2023-03-20T12:28:32;5.33;;;3.60;;
6414;SDS011;3240;48.790;9.210;2023-03-20T12:31:03;4.87;;;3.93;;
6414;SDS011;3240;48.790;9.210;2023-03-20T12:33:37;6.90;;;3.50;;
6414;SDS011;3240;48.790;9.210;2023-03-20T12:36:03;5.30;;;3.47;;
6414;SDS011;3240;48.790;9.210;2023-03-20T12:38:32;5.47;;;3.90;;
6414;SDS011;3240;48.790;9.210;2023-03-20T12:41:10;4.30;;;3.43;;
6414;SDS011;3240;48.790;9.210;2023-03-20T12:43:47;8.13;;;5.77;;
6414;SDS011;3240;48.790;9.210;2023-03-20T12:48:58;7.87;;;4.43;;
6414;SDS011;3240;48.790;9.210;2023-03-20T12:56:57;7.13;;;3.40;;
6414;SDS011;3240;48.790;9.210;2023-03-20T12:59:28;4.73;;;3.77;;
6414;SDS011;3240;48.790;9.210;2023-03-20T13:01:55;5.60;;;4.17;;
6414;SDS011;3240;48.790;9.210;2023-03-20T13:06:59;7.50;;;4.77;;
6414;SDS011;3240;48.790;9.210;2023-03-20T13:09:37;7.20;;;4.50;;
6414;SDS011;3240;48.790;9.210;2023-03-20T13:12:44;4.90;;;4.07;;
6414;SDS011;3240;48.790;9.210;2023-03-20T13:15:00;5.93;;;3.63;;
6414;SDS011;3240;48.790;9.210;2023-03-20T13:17:29;5.33;;;3.80;;
6414;SDS011;3240;48.790;9.210;2023-03-20T13:20:08;6.17;;;3.97;;
6414;SDS011;3240;48.790;9.210;2023-03-20T13:22:36;7.00;;;4.20;;
6414;SDS011;3240;48.790;9.210;2023-03-20T13:25:05;7.70;;;4.23;;
6414;SDS011;3240;48.790;9.210;2023-03-20T13:27:39;5.13;;;3.97;;
6414;SDS011;3240;48.790;9.210;2023-03-20T13:30:14;6.63;;;3.90;;
6414;SDS011;3240;48.790;9.210;2023-03-20T13:32:44;5.63;;;3.60;;
6414;SDS011;3240;48.790;9.210;2023-03-20T13:37:48;4.73;;;3.60;;
6414;SDS011;3240;48.790;9.210;2023-03-20T13:40:23;4.37;;;3.27;;
6414;SDS011;3240;48.790;9.210;2023-03-20T13:42:54;4.10;;;3.00;;
6414;SDS011;3240;48.790;9.210;2023-03-20T13:45:36;4.50;;;3.67;;
6414;SDS011;3240;48.790;9.210;2023-03-20T13:50:41;5.73;;;3.50;;
6414;SDS011;3240;48.790;9.210;2023-03-20T13:53:12;5.67;;;3.17;;
6414;SDS011;3240;48.790;9.210;2023-03-20T13:55:43;5.20;;;3.30;;
6414;SDS011;3240;48.790;9.210;2023-03-20T14:01:02;4.03;;;2.90;;
6414;SDS011;3240;48.790;9.210;2023-03-20T14:03:30;7.00;;;3.37;;
6414;SDS011;3240;48.790;9.210;2023-03-20T14:05:57;3.87;;;2.60;;
6414;SDS011;3240;48.790;9.210;2023-03-20T14:08:30;8.00;;;2.80;;
6414;SDS011;3240;48.790;9.210;2023-03-20T14:11:11;4.33;;;2.97;;
6414;SDS011;3240;48.790;9.210;2023-03-20T14:13:35;4.80;;;3.20;;
6414;SDS011;3240;48.790;9.210;2023-03-20T14:16:04;3.20;;;2.57;;
6414;SDS011;3240;48.790;9.210;2023-03-20T14:18:31;3.77;;;3.23;;
6414;SDS011;3240;48.790;9.210;2023-03-20T14:21:00;4.03;;;3.23;;
6414;SDS011;3240;48.790;9.210;2023-03-20T14:23:34;3.40;;;2.67;;
6414;SDS011;3240;48.790;9.210;2023-03-20T14:26:11;4.33;;;2.90;;
6414;SDS011;3240;48.790;9.210;2023-03-20T14:28:43;4.33;;;3.60;;
6414;SDS011;3240;48.790;9.210;2023-03-20T14:31:10;4.13;;;3.10;;
6414;SDS011;3240;48.790;9.210;2023-03-20T14:33:41;6.47;;;2.97;;
6414;SDS011;3240;48.790;9.210;2023-03-20T14:36:11;6.40;;;2.90;;
6414;SDS011;3240;48.790;9.210;2023-03-20T14:38:38;5.27;;;2.77;;
6414;SDS011;3240;48.790;9.210;2023-03-20T14:41:14;3.67;;;2.60;;
6414;SDS011;3240;48.790;9.210;2023-03-20T14:43:51;3.40;;;2.90;;
6414;SDS011;3240;48.790;9.210;2023-03-20T14:46:18;4.53;;;2.53;;
6414;SDS011;3240;48.790;9.210;2023-03-20T14:48:45;3.83;;;2.70;;
6414;SDS011;3240;48.790;9.210;2023-03-20T14:53:56;3.90;;;2.50;;
6414;SDS011;3240;48.790;9.210;2023-03-20T14:56:26;4.47;;;2.77;;
6414;SDS011;3240;48.790;9.210;2023-03-20T14:58:54;5.13;;;2.90;;
6414;SDS011;3240;48.790;9.210;2023-03-20T15:01:23;4.60;;;2.87;;
6414;SDS011;3240;48.790;9.210;2023-03-20T15:03:52;3.57;;;2.60;;
6414;SDS011;3240;48.790;9.210;2023-03-20T15:06:20;3.60;;;2.60;;
6414;SDS011;3240;48.790;9.210;2023-03-20T15:09:19;4.00;;;2.30;;
6414;SDS011;3240;48.790;9.210;2023-03-20T15:11:30;5.40;;;2.67;;
6414;SDS011;3240;48.790;9.210;2023-03-20T15:13:59;8.77;;;2.57;;
6414;SDS011;3240;48.790;9.210;2023-03-20T15:16:28;2.87;;;2.03;;
6414;SDS011;3240;48.790;9.210;2023-03-20T15:18:55;3.97;;;2.70;;
6414;SDS011;3240;48.790;9.210;2023-03-20T15:21:30;3.83;;;2.03;;
6414;SDS011;3240;48.790;9.210;2023-03-20T15:23:56;4.60;;;3.10;;
6414;SDS011;3240;48.790;9.210;2023-03-20T15:26:25;4.57;;;2.53;;
6414;SDS011;3240;48.790;9.210;2023-03-20T15:29:02;6.00;;;2.57;;
6414;SDS011;3240;48.790;9.210;2023-03-20T15:31:32;2.90;;;2.20;;
6414;SDS011;3240;48.790;9.210;2023-03-20T15:34:00;6.87;;;2.50;;
6414;SDS011;3240;48.790;9.210;2023-03-20T15:36:28;3.60;;;2.70;;
6414;SDS011;3240;48.790;9.210;2023-03-20T15:39:04;6.70;;;3.03;;
6414;SDS011;3240;48.790;9.210;2023-03-20T15:41:33;5.00;;;2.63;;
6414;SDS011;3240;48.790;9.210;2023-03-20T15:44:14;4.07;;;2.60;;
6414;SDS011;3240;48.790;9.210;2023-03-20T15:46:40;4.40;;;2.77;;
6414;SDS011;3240;48.790;9.210;2023-03-20T15:49:15;5.30;;;2.70;;
6414;SDS011;3240;48.790;9.210;2023-03-20T15:51:40;3.83;;;2.23;;
6414;SDS011;3240;48.790;9.210;2023-03-20T15:54:09;5.40;;;3.13;;
6414;SDS011;3240;48.790;9.210;2023-03-20T15:56:38;3.30;;;2.67;;
6414;SDS011;3240;48.790;9.210;2023-03-20T15:59:07;13.10;;;3.60;;
6414;SDS011;3240;48.790;9.210;2023-03-20T16:01:34;3.20;;;2.50;;
6414;SDS011;3240;48.790;9.210;2023-03-20T16:04:04;2.73;;;1.90;;
6414;SDS011;3240;48.790;9.210;2023-03-20T16:06:32;3.10;;;2.30;;
6414;SDS011;3240;48.790;9.210;2023-03-20T16:09:05;4.20;;;2.60;;
6414;SDS011;3240;48.790;9.210;2023-03-20T16:11:35;2.40;;;1.83;;
6414;SDS011;3240;48.790;9.210;2023-03-20T16:14:03;3.00;;;2.10;;
6414;SDS011;3240;48.790;9.210;2023-03-20T16:16:32;4.10;;;2.13;;
6414;SDS011;3240;48.790;9.210;2023-03-20T16:19:05;2.53;;;2.00;;
6414;SDS011;3240;48.790;9.210;2023-03-20T16:21:35;3.83;;;2.13;;
6414;SDS011;3240;48.790;9.210;2023-03-20T16:24:07;3.30;;;1.47;;